Station Historical Data
Daily Summary for January 10, 2017 Units:  Metric    English   Both
« Previous Day
Next Day »
Daily Weekly Monthly Yearly Custom
  High: Low: Average:
Temperature: 7.3 °C -8.6 °C 1.2 °C
Dew Point: 4.6 °C -13.6 °C -3.4 °C
Humidity: 86% 47% 72%
Wind Speed: 32.2km/h 0km/h 11.1km/h
Wind Gust: 57.9km/h - -
Wind- - South
Pressure: 1029.3 hPa 1002.3 hPa -
Precipitation: 0 mm    
Historical Graphs
 
 
Tabular Data for January 10, 2017
Time Temperature Dew Point Pressure Wind Wind Speed Wind Gust Humidity Rainfall Rate (Hourly)
00:04 -7.6 °C -13.2 °C 1029.3 hPa Calm   3.2 km/h 64% 0 mm
00:14 -7.6 °C -13.3 °C 1029.3 hPa SSE 3.2 km/h 4.8 km/h 64% 0 mm
00:19 -7.7 °C -13.3 °C 1029.3 hPa SSE 3.2 km/h 4.8 km/h 64% 0 mm
00:29 -8.2 °C -13.4 °C 1029.3 hPa Calm   3.2 km/h 66% 0 mm
00:34 -8.5 °C -13.6 °C 1029.3 hPa Calm     67% 0 mm
00:39 -8.6 °C -13.4 °C 1029 hPa Calm     68% 0 mm
00:44 -8.6 °C -13.4 °C 1029 hPa Calm     68% 0 mm
00:49 -8.3 °C -13.2 °C 1029 hPa Calm     68% 0 mm
00:54 -8.1 °C -13 °C 1029.3 hPa Calm     68% 0 mm
01:09 -7.5 °C -12.4 °C 1029.3 hPa Calm     68% 0 mm
01:14 -7.4 °C -12.5 °C 1029 hPa Calm     67% 0 mm
01:19 -7.4 °C -12.4 °C 1028.7 hPa Calm     67% 0 mm
01:24 -7.2 °C -12.3 °C 1028.7 hPa Calm   4.8 km/h 67% 0 mm
01:29 -6.8 °C -12.1 °C 1028.7 hPa South 1.6 km/h 8 km/h 66% 0 mm
01:34 -6 °C -11.9 °C 1028.7 hPa South 4.8 km/h 9.7 km/h 63% 0 mm
01:39 -5.4 °C -11.6 °C 1028.7 hPa South 4.8 km/h 11.3 km/h 62% 0 mm
01:44 -4.9 °C -11.5 °C 1028.7 hPa South 6.4 km/h 11.3 km/h 60% 0 mm
01:49 -4.8 °C -11.6 °C 1028.7 hPa South 8 km/h 11.3 km/h 59% 0 mm
01:54 -4.6 °C -11.6 °C 1028.7 hPa SSW 4.8 km/h 14.5 km/h 58% 0 mm
01:59 -4.5 °C -11.5 °C 1028.7 hPa South 6.4 km/h 16.1 km/h 58% 0 mm
02:09 -4.4 °C -11.4 °C 1028.7 hPa South 11.3 km/h 11.3 km/h 58% 0 mm
02:14 -4.3 °C -11.6 °C 1028.7 hPa SSW 11.3 km/h 12.9 km/h 57% 0 mm
02:19 -4.3 °C -11.3 °C 1028.7 hPa South 6.4 km/h 14.5 km/h 58% 0 mm
02:24 -4.2 °C -11.3 °C 1028.7 hPa South 3.2 km/h 9.7 km/h 58% 0 mm
02:29 -4.2 °C -11.2 °C 1028.7 hPa South 4.8 km/h 12.9 km/h 58% 0 mm
02:34 -4.1 °C -10.9 °C 1028.7 hPa South 4.8 km/h 12.9 km/h 59% 0 mm
02:39 -4.1 °C -11.1 °C 1028.7 hPa South 4.8 km/h 14.5 km/h 58% 0 mm
02:44 -4.1 °C -11.1 °C 1028.3 hPa South 4.8 km/h 14.5 km/h 58% 0 mm
02:49 -4 °C -11.1 °C 1028.3 hPa South 4.8 km/h 12.9 km/h 58% 0 mm
02:54 -3.9 °C -11 °C 1028.3 hPa South 8 km/h 11.3 km/h 58% 0 mm
02:59 -3.9 °C -10.9 °C 1028.3 hPa SSW 8 km/h 11.3 km/h 58% 0 mm
03:04 -3.8 °C -10.9 °C 1028 hPa SSW 4.8 km/h 12.9 km/h 58% 0 mm
03:14 -3.7 °C -10.8 °C 1028 hPa South 6.4 km/h 11.3 km/h 58% 0 mm
03:19 -3.7 °C -10.7 °C 1027.7 hPa South 3.2 km/h 9.7 km/h 58% 0 mm
03:24 -3.7 °C -10.5 °C 1027.7 hPa South 4.8 km/h 9.7 km/h 59% 0 mm
03:34 -3.6 °C -10.5 °C 1027.3 hPa South 4.8 km/h 9.7 km/h 59% 0 mm
03:39 -3.6 °C -10.4 °C 1027.3 hPa South 4.8 km/h 11.3 km/h 59% 0 mm
03:44 -3.5 °C -10.4 °C 1027.3 hPa South 4.8 km/h 11.3 km/h 59% 0 mm
03:49 -3.4 °C -10.3 °C 1027.3 hPa South 6.4 km/h 12.9 km/h 59% 0 mm
03:54 -3.3 °C -10.4 °C 1027.3 hPa South 6.4 km/h 12.9 km/h 58% 0 mm
03:59 -3.2 °C -10.3 °C 1027.3 hPa South 6.4 km/h 11.3 km/h 58% 0 mm
04:04 -3.2 °C -10.3 °C 1027.3 hPa South 6.4 km/h 11.3 km/h 58% 0 mm
04:09 -3.1 °C -10.2 °C 1027 hPa South 4.8 km/h 8 km/h 58% 0 mm
04:14 -3.1 °C -10.2 °C 1027 hPa South 4.8 km/h 11.3 km/h 58% 0 mm
04:19 -2.9 °C -10.1 °C 1026.6 hPa South 3.2 km/h 9.7 km/h 58% 0 mm
04:24 -2.9 °C -10 °C 1026.6 hPa SSE 3.2 km/h 6.4 km/h 58% 0 mm
04:29 -2.8 °C -9.9 °C 1026.3 hPa South 3.2 km/h 8 km/h 58% 0 mm
04:34 -2.7 °C -10 °C 1026.3 hPa SSW 1.6 km/h 8 km/h 57% 0 mm
04:39 -2.6 °C -9.9 °C 1026.6 hPa Calm   6.4 km/h 57% 0 mm
04:44 -2.5 °C -9.9 °C 1026.6 hPa South 3.2 km/h 6.4 km/h 57% 0 mm
04:49 -2.5 °C -9.9 °C 1026.6 hPa SSW 1.6 km/h 4.8 km/h 57% 0 mm
04:54 -2.4 °C -10.1 °C 1026.3 hPa South 1.6 km/h 6.4 km/h 56% 0 mm
04:59 -2.3 °C -9.9 °C 1026.3 hPa South 3.2 km/h 6.4 km/h 56% 0 mm
05:04 -2.2 °C -9.8 °C 1026.3 hPa South 1.6 km/h 4.8 km/h 56% 0 mm
05:09 -2.1 °C -10.2 °C 1026.3 hPa South 3.2 km/h 6.4 km/h 54% 0 mm
05:19 -2.1 °C -9.9 °C 1026.3 hPa SSE 1.6 km/h 6.4 km/h 55% 0 mm
05:24 -2 °C -9.6 °C 1026.3 hPa SSE 1.6 km/h 6.4 km/h 56% 0 mm
05:29 -2.1 °C -9.9 °C 1026.3 hPa SSE 1.6 km/h 3.2 km/h 55% 0 mm
05:34 -1.9 °C -9.8 °C 1026 hPa Calm   4.8 km/h 55% 0 mm
05:39 -2 °C -10.1 °C 1026.3 hPa Calm   3.2 km/h 54% 0 mm
05:44 -2 °C -9.8 °C 1026 hPa Calm     55% 0 mm
05:49 -2 °C -10.1 °C 1026 hPa South 1.6 km/h 6.4 km/h 54% 0 mm
05:54 -1.8 °C -9.7 °C 1026 hPa South 1.6 km/h 6.4 km/h 55% 0 mm
05:59 -1.7 °C -9.8 °C 1026 hPa South 3.2 km/h 6.4 km/h 54% 0 mm
06:04 -1.6 °C -10.2 °C 1026 hPa South 3.2 km/h 9.7 km/h 52% 0 mm
06:09 -1.3 °C -10.1 °C 1026 hPa SW 4.8 km/h 11.3 km/h 51% 0 mm
06:14 -1.1 °C -10.2 °C 1026 hPa South 4.8 km/h 12.9 km/h 50% 0 mm
06:19 -0.9 °C -10 °C 1025.6 hPa SSE 9.7 km/h 12.9 km/h 50% 0 mm
06:24 -0.7 °C -10.7 °C 1025.6 hPa SSW 6.4 km/h 16.1 km/h 47% 0 mm
06:29 -0.8 °C -10.2 °C 1025.6 hPa SSW 8 km/h 16.1 km/h 49% 0 mm
06:34 -0.8 °C -10.2 °C 1025.6 hPa South 8 km/h 12.9 km/h 49% 0 mm
06:39 -0.7 °C -10.4 °C 1025.3 hPa South 16.1 km/h 17.7 km/h 48% 0 mm
06:44 -0.7 °C -8.8 °C 1025.3 hPa SSW 8 km/h 27.4 km/h 54% 0 mm
06:49 -0.7 °C -8.9 °C 1025.3 hPa SSW 14.5 km/h 22.5 km/h 54% 0 mm
06:54 -0.8 °C -8.2 °C 1025.3 hPa SSW 12.9 km/h 29 km/h 57% 0 mm
06:59 -1.1 °C -8.1 °C 1025.3 hPa SSW 12.9 km/h 19.3 km/h 59% 0 mm
07:04 -1.3 °C -7.4 °C 1024.9 hPa SSW 11.3 km/h 22.5 km/h 63% 0 mm
07:09 -1.5 °C -7.2 °C 1024.9 hPa SW 6.4 km/h 19.3 km/h 65% 0 mm
07:14 -1.6 °C -6.9 °C 1024.6 hPa SW 4.8 km/h 12.9 km/h 67% 0 mm
07:19 -1.7 °C -7 °C 1024.6 hPa SSW 6.4 km/h 12.9 km/h 67% 0 mm
07:24 -1.7 °C -7 °C 1024.3 hPa SSW 4.8 km/h 11.3 km/h 67% 0 mm
07:34 -1.6 °C -7.1 °C 1023.9 hPa South 4.8 km/h 11.3 km/h 66% 0 mm
07:39 -1.4 °C -7.1 °C 1023.9 hPa SSE 8 km/h 9.7 km/h 65% 0 mm
07:44 -1.3 °C -7.2 °C 1023.9 hPa SSE 9.7 km/h 19.3 km/h 64% 0 mm
07:49 -1.1 °C -7.2 °C 1023.6 hPa South 8 km/h 19.3 km/h 63% 0 mm
07:54 -0.9 °C -6.8 °C 1023.6 hPa South 14.5 km/h 20.9 km/h 64% 0 mm
07:59 -0.7 °C -6.5 °C 1023.2 hPa South 4.8 km/h 20.9 km/h 65% 0 mm
08:04 -0.7 °C -6.7 °C 1023.2 hPa South 9.7 km/h 20.9 km/h 64% 0 mm
08:14 -0.6 °C -6.6 °C 1022.9 hPa South 3.2 km/h 20.9 km/h 64% 0 mm
08:19 -0.6 °C -6.7 °C 1022.9 hPa South 9.7 km/h 20.9 km/h 63% 0 mm
08:29 -0.7 °C -6.2 °C 1022.6 hPa SE 8 km/h 17.7 km/h 66% 0 mm
08:34 -0.7 °C -6.1 °C 1022.6 hPa South 9.7 km/h 17.7 km/h 67% 0 mm
08:39 -0.7 °C -5.9 °C 1022.9 hPa South 9.7 km/h 16.1 km/h 68% 0 mm
08:44 -0.7 °C -5.9 °C 1022.9 hPa South 8 km/h 16.1 km/h 68% 0 mm
08:49 -0.7 °C -5.7 °C 1022.9 hPa South 4.8 km/h 14.5 km/h 69% 0 mm
08:54 -0.7 °C -5.7 °C 1022.6 hPa SSW 6.4 km/h 11.3 km/h 69% 0 mm
08:59 -0.7 °C -5.5 °C 1022.6 hPa SSW 1.6 km/h 9.7 km/h 70% 0 mm
09:04 -0.7 °C -5.4 °C 1022.6 hPa South 3.2 km/h 8 km/h 70% 0 mm
09:09 -0.7 °C -5.4 °C 1022.2 hPa SSE 1.6 km/h 11.3 km/h 70% 0 mm
09:19 -0.5 °C -5.5 °C 1022.2 hPa SSE 4.8 km/h 9.7 km/h 69% 0 mm
09:24 -0.4 °C -5.3 °C 1022.2 hPa South 6.4 km/h 19.3 km/h 70% 0 mm
09:29 -0.2 °C -5.2 °C 1021.9 hPa South 8 km/h 19.3 km/h 69% 0 mm
09:34 -0.1 °C -5.1 °C 1021.9 hPa SSW 11.3 km/h 16.1 km/h 69% 0 mm
09:39 0.1 °C -4.9 °C 1021.9 hPa South 8 km/h 16.1 km/h 69% 0 mm
09:44 0.1 °C -4.8 °C 1021.9 hPa South 6.4 km/h 14.5 km/h 70% 0 mm
09:54 0.3 °C -4.6 °C 1021.6 hPa South 4.8 km/h 14.5 km/h 70% 0 mm
09:59 0.3 °C -4.7 °C 1021.6 hPa South 8 km/h 11.3 km/h 69% 0 mm
10:09 0.6 °C -4.5 °C 1021.6 hPa South 6.4 km/h 14.5 km/h 69% 0 mm
10:14 0.7 °C -4.4 °C 1021.6 hPa SSW 6.4 km/h 19.3 km/h 69% 0 mm
10:19 0.7 °C -4.3 °C 1021.6 hPa SSE 6.4 km/h 11.3 km/h 69% 0 mm
10:24 0.8 °C -4.4 °C 1021.2 hPa South 4.8 km/h 20.9 km/h 68% 0 mm
10:34 1 °C -4.2 °C 1021.2 hPa SSE 14.5 km/h 17.7 km/h 68% 0 mm
10:39 1.1 °C -4.2 °C 1020.9 hPa SSE 11.3 km/h 19.3 km/h 68% 0 mm
10:44 1.1 °C -4.2 °C 1020.9 hPa South 8 km/h 19.3 km/h 68% 0 mm
10:49 1.2 °C -4.1 °C 1020.9 hPa South 9.7 km/h 19.3 km/h 68% 0 mm
10:54 1.2 °C -4.1 °C 1020.5 hPa South 9.7 km/h 17.7 km/h 68% 0 mm
10:59 1.2 °C -4.1 °C 1020.2 hPa SSW 11.3 km/h 12.9 km/h 68% 0 mm
11:04 1.2 °C -4.1 °C 1019.9 hPa South 9.7 km/h 11.3 km/h 68% 0 mm
11:09 1.3 °C -4 °C 1019.5 hPa South 6.4 km/h 12.9 km/h 68% 0 mm
11:14 1.3 °C -3.9 °C 1019.5 hPa South 6.4 km/h 14.5 km/h 68% 0 mm
11:19 1.4 °C -4 °C 1019.2 hPa SSW 8 km/h 11.3 km/h 67% 0 mm
11:24 1.4 °C -3.8 °C 1018.8 hPa South 4.8 km/h 12.9 km/h 68% 0 mm
11:29 1.4 °C -3.8 °C 1018.8 hPa SE 8 km/h 11.3 km/h 68% 0 mm
11:34 1.4 °C -3.8 °C 1018.2 hPa South 4.8 km/h 14.5 km/h 68% 0 mm
11:39 1.3 °C -3.6 °C 1017.8 hPa SSE 8 km/h 14.5 km/h 70% 0 mm
11:44 1.3 °C -3.7 °C 1017.8 hPa SSE 8 km/h 17.7 km/h 69% 0 mm
11:49 1.3 °C -3.6 °C 1017.8 hPa South 8 km/h 20.9 km/h 70% 0 mm
11:54 1.3 °C -3.6 °C 1017.5 hPa South 8 km/h 20.9 km/h 70% 0 mm
11:59 1.4 °C -3.4 °C 1017.5 hPa SSW 8 km/h 19.3 km/h 70% 0 mm
12:04 1.6 °C -3.5 °C 1016.8 hPa South 8 km/h 19.3 km/h 69% 0 mm
12:09 1.7 °C -3.6 °C 1016.8 hPa South 11.3 km/h 22.5 km/h 68% 0 mm
12:14 1.8 °C -3.5 °C 1016.5 hPa SSW 12.9 km/h 20.9 km/h 68% 0 mm
12:19 1.8 °C -3.7 °C 1016.1 hPa South 6.4 km/h 17.7 km/h 67% 0 mm
12:24 1.9 °C -3.6 °C 1016.1 hPa SSW 6.4 km/h 16.1 km/h 67% 0 mm
12:29 2.1 °C -3.4 °C 1016.1 hPa SSW 8 km/h 16.1 km/h 67% 0 mm
12:34 2.1 °C -3.4 °C 1015.8 hPa SSW 9.7 km/h 19.3 km/h 67% 0 mm
12:39 2.2 °C -3.3 °C 1015.8 hPa SSW 9.7 km/h 19.3 km/h 67% 0 mm
12:44 2.3 °C -3.2 °C 1015.5 hPa SSW 9.7 km/h 20.9 km/h 67% 0 mm
12:49 2.3 °C -3.2 °C 1015.5 hPa SSW 11.3 km/h 20.9 km/h 67% 0 mm
12:59 2.3 °C -3.2 °C 1015.5 hPa SSW 12.9 km/h 25.7 km/h 67% 0 mm
13:04 2.3 °C -3.2 °C 1015.1 hPa South 12.9 km/h 25.7 km/h 67% 0 mm
13:09 2.2 °C -3.1 °C 1015.1 hPa South 11.3 km/h 20.9 km/h 68% 0 mm
13:14 2.3 °C -3 °C 1015.5 hPa South 11.3 km/h 20.9 km/h 68% 0 mm
13:19 2.2 °C -2.9 °C 1015.5 hPa South 9.7 km/h 20.9 km/h 69% 0 mm
13:24 2.2 °C -2.7 °C 1015.5 hPa South 9.7 km/h 19.3 km/h 70% 0 mm
13:29 2.1 °C -2.6 °C 1015.1 hPa South 12.9 km/h 20.9 km/h 71% 0 mm
13:34 1.9 °C -2.4 °C 1015.1 hPa South 16.1 km/h 17.7 km/h 73% 0 mm
13:39 1.8 °C -2.3 °C 1015.1 hPa SW 4.8 km/h 19.3 km/h 74% 0 mm
13:44 1.7 °C -2.3 °C 1014.8 hPa SSW 11.3 km/h 20.9 km/h 75% 0 mm
13:49 1.6 °C -2.2 °C 1014.8 hPa SSW 11.3 km/h 16.1 km/h 76% 0 mm
13:54 1.6 °C -2.2 °C 1014.4 hPa South 14.5 km/h 19.3 km/h 76% 0 mm
13:59 1.6 °C -2 °C 1014.1 hPa SSE 8 km/h 17.7 km/h 77% 0 mm
14:04 1.6 °C -2 °C 1014.1 hPa South 8 km/h 22.5 km/h 77% 0 mm
14:09 1.7 °C -1.9 °C 1013.8 hPa South 9.7 km/h 22.5 km/h 77% 0 mm
14:14 1.7 °C -1.9 °C 1013.8 hPa South 9.7 km/h 20.9 km/h 77% 0 mm
14:19 1.7 °C -1.7 °C 1013.8 hPa South 9.7 km/h 22.5 km/h 78% 0 mm
14:24 1.8 °C -1.7 °C 1013.8 hPa South 9.7 km/h 22.5 km/h 78% 0 mm
14:29 1.8 °C -1.4 °C 1013.4 hPa South 9.7 km/h 24.1 km/h 79% 0 mm
14:34 1.9 °C -1.4 °C 1013.4 hPa South 11.3 km/h 24.1 km/h 79% 0 mm
14:39 1.9 °C -1.2 °C 1013.1 hPa South 9.7 km/h 17.7 km/h 80% 0 mm
14:44 2 °C -1.1 °C 1013.1 hPa South 20.9 km/h 25.7 km/h 80% 0 mm
14:49 2.1 °C -0.8 °C 1013.1 hPa South 14.5 km/h 27.4 km/h 81% 0 mm
14:54 2.1 °C -0.7 °C 1012.8 hPa SE 9.7 km/h 20.9 km/h 82% 0 mm
14:59 2.1 °C -0.6 °C 1012.8 hPa WSW 8 km/h 19.3 km/h 83% 0 mm
15:04 2.1 °C -0.4 °C 1012.4 hPa South 11.3 km/h 22.5 km/h 84% 0 mm
15:09 2.2 °C -0.2 °C 1012.4 hPa South 17.7 km/h 29 km/h 84% 0 mm
15:14 2.2 °C -0.2 °C 1012.1 hPa South 14.5 km/h 29 km/h 84% 0.25 mm
15:19 2.2 °C -0.2 °C 1012.1 hPa South 14.5 km/h 27.4 km/h 84% 0.25 mm
15:24 2.3 °C -0.2 °C 1011.7 hPa South 14.5 km/h 30.6 km/h 84% 0.25 mm
15:29 2.4 °C 0 °C 1011.7 hPa South 14.5 km/h 30.6 km/h 84% 0.25 mm
15:34 2.5 °C -0.1 °C 1011.7 hPa South 24.1 km/h 27.4 km/h 83% 0.25 mm
15:39 2.6 °C -0.1 °C 1011.4 hPa SSE 9.7 km/h 29 km/h 83% 0.25 mm
15:44 2.5 °C 0.1 °C 1011.4 hPa South 14.5 km/h 22.5 km/h 84% 0.25 mm
15:49 2.4 °C 0 °C 1011.4 hPa South 12.9 km/h 22.5 km/h 84% 0.25 mm
15:54 2.5 °C 0.1 °C 1011.1 hPa South 14.5 km/h 30.6 km/h 84% 0.25 mm
15:59 2.6 °C 0 °C 1011.1 hPa SSE 11.3 km/h 32.2 km/h 83% 0.25 mm
16:04 2.6 °C 0 °C 1010.7 hPa South 8 km/h 25.7 km/h 83% 0.25 mm
16:09 2.7 °C 0.1 °C 1010.7 hPa South 19.3 km/h 20.9 km/h 83% 0.25 mm
16:14 2.7 °C 0.1 °C 1010.7 hPa SSW 16.1 km/h 22.5 km/h 83% 0 mm
16:19 2.8 °C 0.2 °C 1010.7 hPa South 12.9 km/h 27.4 km/h 83% 0.25 mm
16:24 2.8 °C 0.2 °C 1010.4 hPa South 12.9 km/h 30.6 km/h 83% 0.25 mm
16:29 2.9 °C 0.3 °C 1010.4 hPa SSW 11.3 km/h 27.4 km/h 83% 0.25 mm
16:34 2.9 °C 0.3 °C 1010.4 hPa South 9.7 km/h 30.6 km/h 83% 0.25 mm
16:39 2.9 °C 0.5 °C 1010 hPa SSW 11.3 km/h 29 km/h 84% 0.51 mm
16:44 3 °C 0.6 °C 1010 hPa SSE 14.5 km/h 29 km/h 84% 0.51 mm
16:49 3.1 °C 0.7 °C 1010 hPa South 22.5 km/h 25.7 km/h 84% 0.51 mm
16:54 3.2 °C 0.6 °C 1009.7 hPa South 12.9 km/h 29 km/h 83% 0.51 mm
16:59 3.2 °C 0.6 °C 1009.7 hPa South 16.1 km/h 30.6 km/h 83% 0.51 mm
17:04 3.2 °C 0.6 °C 1009.7 hPa South 16.1 km/h 37 km/h 83% 0.51 mm
17:09 3.2 °C 0.7 °C 1009.4 hPa South 17.7 km/h 37 km/h 84% 0.51 mm
17:14 3.2 °C 0.7 °C 1009.7 hPa South 19.3 km/h 33.8 km/h 84% 0.51 mm
17:19 3.2 °C 0.7 °C 1009.4 hPa SSW 8 km/h 25.7 km/h 84% 0.25 mm
17:24 3.2 °C 0.7 °C 1009.4 hPa South 22.5 km/h 29 km/h 84% 0.25 mm
17:29 3.2 °C 0.8 °C 1009.4 hPa South 14.5 km/h 30.6 km/h 84% 0.25 mm
17:34 3.3 °C 0.9 °C 1009 hPa South 14.5 km/h 30.6 km/h 84% 0.25 mm
17:39 3.6 °C 1.1 °C 1009 hPa South 12.9 km/h 29 km/h 84% 0 mm
17:44 3.8 °C 1.2 °C 1008.7 hPa SE 12.9 km/h 27.4 km/h 83% 0 mm
17:49 3.9 °C 1.3 °C 1008.7 hPa SW 9.7 km/h 38.6 km/h 83% 0 mm
17:54 4.1 °C 1.4 °C 1008.7 hPa South 22.5 km/h 35.4 km/h 83% 0.25 mm
17:59 4.2 °C 1.8 °C 1008.4 hPa SSW 12.9 km/h 35.4 km/h 84% 0.25 mm
18:04 4.3 °C 1.7 °C 1008.4 hPa South 19.3 km/h 38.6 km/h 83% 0.25 mm
18:09 4.3 °C 1.8 °C 1008 hPa South 19.3 km/h 38.6 km/h 84% 0.25 mm
18:14 4.3 °C 1.8 °C 1008 hPa South 19.3 km/h 45.1 km/h 84% 0.51 mm
18:19 4.3 °C 1.8 °C 1008 hPa South 19.3 km/h 45.1 km/h 84% 0.76 mm
18:24 4.3 °C 2.1 °C 1008 hPa SSW 9.7 km/h 37 km/h 85% 1.02 mm
18:29 4.4 °C 2.3 °C 1007.7 hPa South 6.4 km/h 38.6 km/h 86% 1.52 mm
18:34 4.6 °C 2.4 °C 1007.7 hPa SSW 19.3 km/h 37 km/h 86% 1.78 mm
18:39 4.6 °C 2.3 °C 1007.3 hPa South 19.3 km/h 43.5 km/h 85% 2.29 mm
18:44 4.7 °C 2.6 °C 1007.3 hPa South 19.3 km/h 45.1 km/h 86% 2.29 mm
18:49 4.8 °C 2.7 °C 1007.3 hPa South 19.3 km/h 45.1 km/h 86% 2.54 mm
18:54 4.8 °C 2.5 °C 1007 hPa South 12.9 km/h 33.8 km/h 85% 2.29 mm
18:59 4.8 °C 2.5 °C 1006.7 hPa SW 22.5 km/h 35.4 km/h 85% 2.54 mm
19:04 5 °C 2.7 °C 1006.7 hPa South 11.3 km/h 43.5 km/h 85% 2.54 mm
19:09 5.1 °C 2.8 °C 1006.7 hPa SW 19.3 km/h 49.9 km/h 85% 2.54 mm
19:14 5.2 °C 2.7 °C 1006.3 hPa South 17.7 km/h 49.9 km/h 84% 2.29 mm
19:19 5.3 °C 2.8 °C 1006.3 hPa South 17.7 km/h 45.1 km/h 84% 2.03 mm
19:24 5.3 °C 2.8 °C 1006.3 hPa South 17.7 km/h 32.2 km/h 84% 2.03 mm
19:29 5.4 °C 3.1 °C 1006.3 hPa SSW 8 km/h 35.4 km/h 85% 1.52 mm
19:34 5.5 °C 3.2 °C 1006 hPa SW 24.1 km/h 41.8 km/h 85% 1.52 mm
19:39 5.6 °C 3.1 °C 1006.3 hPa South 24.1 km/h 40.2 km/h 84% 1.02 mm
19:44 5.7 °C 3.2 °C 1006 hPa South 17.7 km/h 40.2 km/h 84% 1.02 mm
19:49 5.7 °C 3.2 °C 1005.6 hPa South 19.3 km/h 43.5 km/h 84% 0.76 mm
19:54 5.7 °C 3.2 °C 1005.3 hPa South 19.3 km/h 43.5 km/h 84% 0.76 mm
19:59 5.7 °C 3.2 °C 1005.6 hPa South 17.7 km/h 35.4 km/h 84% 0.51 mm
20:04 5.6 °C 3.1 °C 1005.3 hPa South 17.7 km/h 35.4 km/h 84% 0.51 mm
20:09 5.4 °C 2.9 °C 1005.3 hPa South 16.1 km/h 37 km/h 84% 0.76 mm
20:14 5.4 °C 3.1 °C 1005.3 hPa SSW 9.7 km/h 33.8 km/h 85% 0.76 mm
20:19 5.6 °C 3.2 °C 1005.3 hPa South 17.7 km/h 33.8 km/h 85% 0.76 mm
20:24 5.7 °C 3.2 °C 1005 hPa South 17.7 km/h 35.4 km/h 84% 0.51 mm
20:29 5.8 °C 3.3 °C 1005.3 hPa SSW 20.9 km/h 38.6 km/h 84% 0.51 mm
20:34 5.9 °C 3.3 °C 1005 hPa SSW 29 km/h 30.6 km/h 83% 0.25 mm
20:39 6.1 °C 3.4 °C 1005 hPa SSE 12.9 km/h 37 km/h 83% 0.25 mm
20:49 6.3 °C 3.5 °C 1004.6 hPa South 29 km/h 38.6 km/h 82% 0.25 mm
20:54 6.7 °C 3.7 °C 1004.3 hPa South 20.9 km/h 38.6 km/h 81% 0.25 mm
20:59 6.7 °C 3.5 °C 1004.3 hPa SSW 27.4 km/h 45.1 km/h 80% 0.25 mm
21:04 6.8 °C 3.6 °C 1004.3 hPa South 24.1 km/h 46.7 km/h 80% 0.25 mm
21:09 6.7 °C 3.3 °C 1003.9 hPa South 22.5 km/h 48.3 km/h 79% 0 mm
21:14 6.6 °C 3.4 °C 1003.9 hPa South 12.9 km/h 33.8 km/h 80% 0 mm
21:19 6.7 °C 3.5 °C 1003.9 hPa SSW 24.1 km/h 43.5 km/h 80% 0 mm
21:24 6.8 °C 3.4 °C 1003.9 hPa South 19.3 km/h 43.5 km/h 79% 0 mm
21:29 6.8 °C 3.4 °C 1003.6 hPa South 20.9 km/h 41.8 km/h 79% 0 mm
21:34 6.9 °C 3.6 °C 1003.9 hPa South 24.1 km/h 48.3 km/h 79% 0 mm
21:39 6.9 °C 3.4 °C 1003.6 hPa SSW 27.4 km/h 43.5 km/h 78% 0 mm
21:44 6.9 °C 3.6 °C 1003.9 hPa WSW 27.4 km/h 54.7 km/h 79% 0 mm
21:49 7 °C 3.4 °C 1003.9 hPa SSE 32.2 km/h 46.7 km/h 78% 0 mm
21:54 6.9 °C 3.4 °C 1003.9 hPa South 29 km/h 32.2 km/h 78% 0 mm
21:59 6.9 °C 3.4 °C 1003.6 hPa South 17.7 km/h 48.3 km/h 78% 0 mm
22:04 7.1 °C 3.7 °C 1003.6 hPa South 22.5 km/h 48.3 km/h 79% 0 mm
22:09 7.3 °C 3.7 °C 1003.3 hPa South 24.1 km/h 48.3 km/h 78% 0 mm
22:14 7.2 °C 3.8 °C 1003.6 hPa South 22.5 km/h 43.5 km/h 79% 0 mm
22:19 7.2 °C 3.8 °C 1003.6 hPa SW 22.5 km/h 48.3 km/h 79% 0 mm
22:24 6.9 °C 3.7 °C 1003.6 hPa South 22.5 km/h 41.8 km/h 80% 0 mm
22:29 7.2 °C 3.9 °C 1003.3 hPa SSW 14.5 km/h 40.2 km/h 80% 0 mm
22:34 6.9 °C 3.6 °C 1003.3 hPa South 20.9 km/h 40.2 km/h 79% 0 mm
22:39 6.7 °C 3.5 °C 1002.9 hPa SSE 30.6 km/h 57.9 km/h 80% 0 mm
22:44 7.2 °C 3.9 °C 1002.9 hPa South 16.1 km/h 46.7 km/h 80% 0 mm
22:49 7.1 °C 3.7 °C 1002.9 hPa South 9.7 km/h 40.2 km/h 79% 0 mm
22:54 6.9 °C 3.7 °C 1002.6 hPa SSW 11.3 km/h 37 km/h 80% 0.25 mm
22:59 6.7 °C 3.6 °C 1002.6 hPa SE 12.9 km/h 35.4 km/h 81% 0.25 mm
23:04 6.6 °C 3.8 °C 1002.9 hPa SSW 27.4 km/h 40.2 km/h 82% 0.25 mm
23:09 6.7 °C 3.9 °C 1003.3 hPa South 20.9 km/h 40.2 km/h 82% 0.25 mm
23:14 6.8 °C 4.2 °C 1002.9 hPa SSW 19.3 km/h 43.5 km/h 83% 0.25 mm
23:19 6.9 °C 4.3 °C 1002.6 hPa South 24.1 km/h 53.1 km/h 83% 0.51 mm
23:24 6.8 °C 4.1 °C 1002.3 hPa South 25.7 km/h 53.1 km/h 83% 0.51 mm
23:29 6.7 °C 4.2 °C 1002.6 hPa SSW 14.5 km/h 38.6 km/h 84% 0.51 mm
23:34 6.8 °C 4.3 °C 1002.9 hPa SSW 11.3 km/h 33.8 km/h 84% 0.76 mm
23:39 6.6 °C 4.1 °C 1002.6 hPa SSW 17.7 km/h 33.8 km/h 84% 0.76 mm
23:44 6.5 °C 4.2 °C 1002.9 hPa SSW 16.1 km/h 37 km/h 85% 1.02 mm
23:49 6.6 °C 4.2 °C 1002.9 hPa South 16.1 km/h 33.8 km/h 85% 1.02 mm
23:54 6.5 °C 4.2 °C 1003.3 hPa SSW 16.1 km/h 29 km/h 85% 0.76 mm
23:59 6.7 °C 4.6 °C 1003.3 hPa WSW 9.7 km/h 37 km/h 86% 1.02 mm
Buffalo, New York, USA
Compliments of Weather Underground - 2.25 mb